Time;durP1;ratioP1;P1;durP2;ratioP2;P2;SDS_P1;SDS_P2;PMS_P1;PMS_P2;Temp;Humidity;BMP_temperature;BMP_pressure;BME280_temperature;BME280_humidity;BME280_pressure;Samples;Min_cycle;Max_cycle;Signal;HPM_P1;HPM_P2
2021/06/22 00:03:20;;;;;;;3.97;3.57;;;20.90;99.90;;;;;;10529601;28;20642;-79
2021/06/22 00:08:23;;;;;;;3.77;3.50;;;20.90;99.90;;;;;;10525776;28;20550;-79
2021/06/22 00:13:25;;;;;;;4.30;3.90;;;21.00;99.90;;;;;;10528652;28;20288;-79
2021/06/22 00:18:27;;;;;;;3.67;3.47;;;21.00;99.90;;;;;;10528965;28;20220;-79
2021/06/22 00:23:31;;;;;;;4.63;4.23;;;21.00;99.90;;;;;;10525485;28;20197;-79
2021/06/22 00:28:33;;;;;;;4.47;4.17;;;21.00;99.90;;;;;;10524942;28;20311;-79
2021/06/22 00:33:35;;;;;;;5.00;4.53;;;21.10;99.90;;;;;;10530329;28;20208;-79
2021/06/22 00:38:39;;;;;;;4.63;4.23;;;21.20;99.90;;;;;;10527212;28;20230;-79
2021/06/22 00:43:41;;;;;;;4.43;4.13;;;21.20;99.90;;;;;;10536847;28;20676;-79
2021/06/22 00:48:44;;;;;;;10.80;4.57;;;21.20;99.90;;;;;;10535825;28;20607;-79
2021/06/22 00:53:47;;;;;;;4.60;4.30;;;21.20;99.90;;;;;;10538350;28;20208;-79
2021/06/22 00:58:50;;;;;;;4.40;4.10;;;21.20;99.90;;;;;;10539545;28;20675;-79
2021/06/22 01:03:53;;;;;;;4.23;3.93;;;21.30;99.90;;;;;;10532882;28;20320;-79
2021/06/22 01:08:57;;;;;;;3.70;3.40;;;21.30;99.90;;;;;;10545629;28;20307;-79
2021/06/22 01:13:59;;;;;;;4.10;3.53;;;21.40;99.90;;;;;;10545317;28;20199;-79
2021/06/22 01:19:04;;;;;;;3.30;3.10;;;21.40;99.90;;;;;;10529654;28;20695;-79
2021/06/22 01:24:32;;;;;;;3.50;3.20;;;21.40;99.90;;;;;;10536513;28;20614;-79
2021/06/22 01:29:34;;;;;;;3.57;3.30;;;21.40;99.90;;;;;;10519371;28;20212;-79
2021/06/22 01:34:39;;;;;;;4.23;3.73;;;21.40;99.90;;;;;;10544915;28;20196;-79
2021/06/22 01:39:43;;;;;;;3.60;3.30;;;21.30;99.90;;;;;;10543322;28;20299;-79
2021/06/22 01:44:50;;;;;;;4.17;3.87;;;21.30;99.90;;;;;;10544631;28;20250;-79
2021/06/22 01:50:01;;;;;;;4.70;4.40;;;21.20;99.90;;;;;;10544839;28;20211;-79
2021/06/22 02:00:32;;;;;;;6.17;4.17;;;21.00;99.90;;;;;;10543638;28;20215;-79
2021/06/22 02:05:41;;;;;;;4.83;4.40;;;20.80;99.90;;;;;;10536501;28;20282;-79
2021/06/22 02:10:45;;;;;;;6.10;4.70;;;20.70;99.90;;;;;;10553893;28;20306;-79
2021/06/22 02:16:05;;;;;;;4.93;4.63;;;20.60;99.90;;;;;;10544359;28;20207;-79
2021/06/22 02:21:08;;;;;;;4.60;4.30;;;20.50;99.90;;;;;;10538486;28;20222;-79
2021/06/22 02:26:14;;;;;;;4.60;4.20;;;20.50;99.90;;;;;;10539722;28;20234;-79
2021/06/22 02:31:16;;;;;;;4.83;4.53;;;20.50;99.90;;;;;;10536130;28;20254;-79
2021/06/22 02:36:23;;;;;;;4.90;4.20;;;20.50;99.90;;;;;;10523681;28;20318;-79
2021/06/22 02:41:27;;;;;;;5.23;4.17;;;20.50;99.90;;;;;;10541887;28;20220;-79
2021/06/22 02:46:37;;;;;;;4.77;4.20;;;20.50;99.90;;;;;;10539227;28;20215;-79
2021/06/22 02:51:39;;;;;;;4.50;4.20;;;20.50;99.90;;;;;;10539018;28;20660;-79
2021/06/22 02:56:44;;;;;;;5.03;4.63;;;20.50;99.90;;;;;;10522502;28;20212;-79
2021/06/22 03:01:46;;;;;;;5.07;4.53;;;20.40;99.90;;;;;;10532887;28;20215;-79
2021/06/22 03:06:49;;;;;;;5.03;4.50;;;20.40;99.90;;;;;;10540584;28;20287;-79
2021/06/22 03:12:01;;;;;;;4.67;4.27;;;20.40;99.90;;;;;;10521633;28;20234;-79
2021/06/22 03:17:17;;;;;;;5.30;4.80;;;20.40;99.90;;;;;;10520562;28;20235;-79
2021/06/22 03:22:21;;;;;;;5.00;4.60;;;20.40;99.90;;;;;;10541144;28;20192;-79
2021/06/22 03:27:25;;;;;;;5.27;4.87;;;20.30;99.90;;;;;;10536528;28;20227;-79
2021/06/22 03:32:47;;;;;;;5.17;4.80;;;20.30;99.90;;;;;;10536903;28;20226;-79
2021/06/22 03:37:49;;;;;;;5.83;5.43;;;20.30;99.90;;;;;;10539540;28;20586;-79
2021/06/22 03:42:53;;;;;;;5.40;5.00;;;20.30;99.90;;;;;;10538823;28;20203;-79
2021/06/22 03:47:55;;;;;;;8.07;5.70;;;20.30;99.90;;;;;;10538326;28;20219;-79
2021/06/22 03:52:59;;;;;;;6.00;5.47;;;20.40;99.90;;;;;;10534015;28;20247;-79
2021/06/22 03:58:05;;;;;;;5.30;4.93;;;20.40;99.90;;;;;;10533133;28;20230;-79
2021/06/22 04:03:16;;;;;;;5.10;4.80;;;20.50;99.90;;;;;;10530476;28;20255;-79
2021/06/22 04:08:25;;;;;;;5.50;5.10;;;20.50;99.90;;;;;;10520185;28;20254;-79
2021/06/22 04:13:34;;;;;;;5.87;5.37;;;20.50;99.90;;;;;;10538079;28;20247;-79
2021/06/22 04:18:39;;;;;;;5.60;5.10;;;20.60;99.90;;;;;;10520462;28;20224;-79
2021/06/22 04:23:45;;;;;;;7.00;5.77;;;20.70;99.90;;;;;;10521772;28;20660;-79
2021/06/22 04:28:51;;;;;;;4.93;4.63;;;20.70;99.90;;;;;;10529586;28;20265;-79
2021/06/22 04:33:53;;;;;;;5.70;5.13;;;20.80;99.90;;;;;;10527671;28;20250;-79
2021/06/22 04:38:55;;;;;;;5.70;5.23;;;20.90;99.90;;;;;;10539408;28;20223;-79
2021/06/22 04:43:59;;;;;;;5.50;5.10;;;20.90;99.90;;;;;;10535768;28;20192;-79
2021/06/22 04:49:01;;;;;;;8.10;7.40;;;20.90;99.90;;;;;;10530178;28;20255;-79
2021/06/22 04:54:03;;;;;;;8.50;7.70;;;21.00;99.90;;;;;;10539946;28;20216;-79
2021/06/22 04:59:06;;;;;;;10.73;9.63;;;21.00;99.90;;;;;;10526823;28;20217;-80
2021/06/22 05:04:08;;;;;;;13.27;11.73;;;21.00;99.90;;;;;;10512595;28;20270;-80
2021/06/22 05:09:11;;;;;;;11.23;10.13;;;21.00;99.90;;;;;;10512402;28;20235;-79
2021/06/22 05:14:14;;;;;;;11.20;10.37;;;21.00;99.90;;;;;;10505111;28;20327;-79
2021/06/22 05:19:17;;;;;;;11.67;10.70;;;21.10;99.90;;;;;;10520096;28;20591;-79
2021/06/22 05:24:19;;;;;;;11.20;10.10;;;21.30;99.90;;;;;;10507928;28;20223;-79
2021/06/22 05:29:22;;;;;;;9.63;8.83;;;21.40;99.90;;;;;;10511564;28;20300;-79
2021/06/22 05:34:24;;;;;;;13.20;11.83;;;21.50;99.90;;;;;;10496439;28;20189;-79
2021/06/22 05:39:27;;;;;;;11.30;10.40;;;21.50;99.90;;;;;;10518733;28;20220;-81
2021/06/22 05:44:30;;;;;;;12.23;11.17;;;21.50;99.90;;;;;;10513421;28;20235;-79
2021/06/22 05:49:32;;;;;;;10.87;9.87;;;21.50;99.90;;;;;;10518848;28;20294;-81
2021/06/22 05:54:36;;;;;;;11.10;10.20;;;21.60;99.90;;;;;;10530186;28;20234;-80
2021/06/22 05:59:40;;;;;;;11.07;10.17;;;21.70;99.90;;;;;;10531338;28;20228;-81
2021/06/22 06:04:42;;;;;;;9.53;8.73;;;21.80;99.90;;;;;;10510595;28;20196;-78
2021/06/22 06:09:46;;;;;;;9.27;8.50;;;21.80;99.90;;;;;;10510965;28;20598;-78
2021/06/22 06:14:50;;;;;;;8.70;8.00;;;21.90;99.90;;;;;;10515405;28;20208;-81
2021/06/22 06:19:52;;;;;;;8.70;8.00;;;22.00;99.90;;;;;;10529468;28;20216;-79
2021/06/22 06:24:58;;;;;;;9.33;7.33;;;22.00;99.90;;;;;;10526028;28;20210;-79
2021/06/22 06:30:04;;;;;;;8.40;7.80;;;22.10;99.90;;;;;;10534967;28;20277;-79
2021/06/22 06:35:08;;;;;;;9.47;7.70;;;22.20;99.90;;;;;;10509131;28;20204;-79
2021/06/22 06:40:11;;;;;;;10.40;7.90;;;22.20;99.90;;;;;;10507732;28;20240;-79
2021/06/22 06:45:17;;;;;;;9.43;8.73;;;22.20;99.90;;;;;;10522459;28;20196;-80
2021/06/22 06:50:19;;;;;;;9.60;8.87;;;22.10;99.90;;;;;;10528080;28;20683;-80
2021/06/22 06:55:27;;;;;;;11.33;8.97;;;22.10;99.90;;;;;;10530847;28;20214;-80
2021/06/22 07:00:33;;;;;;;9.30;8.43;;;22.10;99.90;;;;;;10533966;28;20216;-79
2021/06/22 07:05:36;;;;;;;9.80;9.00;;;22.20;99.90;;;;;;10524338;28;20218;-79
2021/06/22 07:10:38;;;;;;;9.60;8.60;;;22.30;99.90;;;;;;10527354;28;20223;-79
2021/06/22 07:15:42;;;;;;;9.60;8.90;;;22.40;99.90;;;;;;10532083;28;20221;-79
2021/06/22 07:20:44;;;;;;;8.93;8.20;;;22.60;99.90;;;;;;10534808;28;20212;-79
2021/06/22 07:25:46;;;;;;;9.80;9.03;;;22.80;99.90;;;;;;10538911;28;20733;-79
2021/06/22 07:30:50;;;;;;;8.67;8.00;;;23.20;99.90;;;;;;10538748;28;20318;-79
2021/06/22 07:35:52;;;;;;;10.23;8.40;;;24.20;99.90;;;;;;10538434;28;20210;-79
2021/06/22 07:40:54;;;;;;;6.70;6.20;;;25.10;99.90;;;;;;10527031;28;20212;-79
2021/06/22 07:45:58;;;;;;;7.40;6.63;;;25.00;99.90;;;;;;10500715;28;20672;-79
2021/06/22 07:51:01;;;;;;;10.83;6.83;;;24.80;99.90;;;;;;10502783;28;20748;-79
2021/06/22 07:56:03;;;;;;;6.37;5.77;;;25.00;99.90;;;;;;10502513;28;20198;-79
2021/06/22 08:01:09;;;;;;;4.90;4.50;;;25.50;99.90;;;;;;10505319;28;20677;-79
2021/06/22 08:06:12;;;;;;;5.50;4.80;;;25.50;99.90;;;;;;10511815;28;20292;-79
2021/06/22 08:11:17;;;;;;;4.50;4.20;;;25.20;99.90;;;;;;10512153;28;20678;-79
2021/06/22 08:16:21;;;;;;;5.57;4.40;;;24.90;99.90;;;;;;10513879;28;20227;-80
2021/06/22 08:21:24;;;;;;;4.90;4.60;;;24.60;99.90;;;;;;10516020;28;20303;-80
2021/06/22 08:26:26;;;;;;;5.20;4.90;;;24.30;99.90;;;;;;10495145;28;20205;-80
2021/06/22 08:31:29;;;;;;;5.27;4.23;;;24.10;99.90;;;;;;10499193;28;20684;-80
2021/06/22 08:36:32;;;;;;;4.23;3.93;;;23.90;99.90;;;;;;10516806;28;20254;-80
2021/06/22 08:41:37;;;;;;;6.60;6.00;;;23.80;99.90;;;;;;10513445;28;20220;-80
2021/06/22 08:46:41;;;;;;;5.77;5.27;;;23.60;99.90;;;;;;10516073;28;20204;-80
2021/06/22 08:51:44;;;;;;;6.90;5.63;;;23.50;99.90;;;;;;10519352;28;20261;-80
2021/06/22 08:56:46;;;;;;;6.73;6.10;;;23.40;99.90;;;;;;10514117;28;20201;-80
2021/06/22 09:01:49;;;;;;;5.90;5.40;;;23.20;99.90;;;;;;10515731;28;20223;-79
2021/06/22 09:06:52;;;;;;;4.70;4.40;;;23.20;99.90;;;;;;10496596;28;20718;-80
2021/06/22 09:12:05;;;;;;;5.07;4.50;;;23.20;99.90;;;;;;10519218;28;20223;-79
2021/06/22 09:17:09;;;;;;;4.93;3.43;;;23.20;99.90;;;;;;10525292;28;20223;-80
2021/06/22 09:22:16;;;;;;;7.30;6.47;;;23.20;99.90;;;;;;10517301;28;20634;-80
2021/06/22 09:27:38;;;;;;;8.43;5.70;;;23.30;99.90;;;;;;10524675;28;20286;-79
2021/06/22 09:32:42;;;;;;;6.70;6.10;;;23.50;99.90;;;;;;10545226;28;20249;-79
2021/06/22 09:37:51;;;;;;;7.17;6.47;;;23.60;99.90;;;;;;10530852;28;20219;-79
2021/06/22 09:42:57;;;;;;;9.50;7.30;;;23.70;99.90;;;;;;10546757;28;20196;-80
2021/06/22 09:48:05;;;;;;;9.93;8.10;;;23.80;99.90;;;;;;10546795;28;20587;-79
2021/06/22 09:53:25;;;;;;;8.73;7.90;;;23.90;99.90;;;;;;10535018;28;20307;-80
2021/06/22 09:58:39;;;;;;;7.77;6.93;;;23.90;99.90;;;;;;10541512;28;20253;-79
2021/06/22 10:03:44;;;;;;;7.30;6.70;;;24.30;99.90;;;;;;10526481;28;20200;-80
2021/06/22 10:08:54;;;;;;;6.87;6.27;;;24.50;99.90;;;;;;10525565;28;20246;-80
2021/06/22 10:13:57;;;;;;;7.10;6.50;;;24.30;99.90;;;;;;10540317;28;20251;-80
2021/06/22 10:19:02;;;;;;;7.40;6.90;;;24.30;99.90;;;;;;10537676;28;20261;-80
2021/06/22 10:24:05;;;;;;;7.10;6.40;;;24.50;99.90;;;;;;10545492;28;20196;-80
2021/06/22 10:29:08;;;;;;;8.00;7.40;;;25.10;99.90;;;;;;10544379;28;20223;-80
2021/06/22 10:34:12;;;;;;;7.77;7.07;;;25.20;99.90;;;;;;10538446;28;20258;-80
2021/06/22 10:39:27;;;;;;;7.53;6.83;;;25.00;99.90;;;;;;10543530;28;20245;-79
2021/06/22 10:44:52;;;;;;;5.73;5.10;;;24.70;99.90;;;;;;10532101;28;20206;-79
2021/06/22 10:50:00;;;;;;;6.37;5.87;;;24.30;99.90;;;;;;10519891;28;20224;-80
2021/06/22 10:55:08;;;;;;;5.67;5.27;;;23.90;99.90;;;;;;10536742;28;20220;-79
2021/06/22 11:00:11;;;;;;;5.40;5.00;;;23.70;99.90;;;;;;10544429;28;20219;-80
2021/06/22 11:05:17;;;;;;;5.07;4.67;;;23.50;99.90;;;;;;10521210;28;20196;-78
2021/06/22 11:10:20;;;;;;;6.00;5.40;;;23.30;99.90;;;;;;10561061;22;20250;-84
2021/06/22 11:15:22;;;;;;;6.83;6.23;;;23.10;99.90;;;;;;10529654;28;20224;-83
2021/06/22 11:20:29;;;;;;;7.80;7.10;;;22.70;99.90;;;;;;10525349;28;20226;-84
2021/06/22 11:25:49;;;;;;;7.90;7.30;;;22.20;99.90;;;;;;10514724;28;20204;-84
2021/06/22 11:30:55;;;;;;;8.57;7.87;;;21.90;99.90;;;;;;10511347;28;20277;-82
2021/06/22 11:36:27;;;;;;;7.73;7.20;;;21.70;99.90;;;;;;10506639;28;20291;-83
2021/06/22 11:41:30;;;;;;;7.83;7.00;;;21.70;99.90;;;;;;10514133;28;20227;-84
2021/06/22 11:46:32;;;;;;;6.53;6.03;;;21.70;99.90;;;;;;10506448;28;20203;-82
2021/06/22 11:52:06;;;;;;;6.17;5.60;;;21.70;99.90;;;;;;10484061;28;20672;-81
2021/06/22 11:57:15;;;;;;;7.23;6.53;;;21.70;99.90;;;;;;10522717;28;20274;-82
2021/06/22 12:02:17;;;;;;;6.40;5.80;;;21.70;99.90;;;;;;10513726;28;20220;-82
2021/06/22 12:07:20;;;;;;;6.40;5.90;;;21.80;99.90;;;;;;10497119;28;20222;-82
2021/06/22 12:12:23;;;;;;;5.77;5.37;;;21.80;99.90;;;;;;10496932;28;20309;-82
2021/06/22 12:17:25;;;;;;;5.23;4.83;;;21.80;99.90;;;;;;10489611;28;20200;-81
2021/06/22 12:22:28;;;;;;;5.77;5.27;;;21.80;99.90;;;;;;10484835;28;20249;-82
2021/06/22 12:27:31;;;;;;;4.80;4.37;;;21.80;99.90;;;;;;10490085;28;20287;-83
2021/06/22 12:32:34;;;;;;;4.70;4.40;;;21.80;99.90;;;;;;10522607;28;20226;-81
2021/06/22 12:37:36;;;;;;;5.63;5.13;;;21.80;99.90;;;;;;10498727;28;20245;-84
2021/06/22 12:42:47;;;;;;;5.60;5.13;;;21.80;99.90;;;;;;10516659;28;20192;-84
2021/06/22 12:47:53;;;;;;;7.03;6.10;;;21.70;99.90;;;;;;10497301;28;20223;-82
2021/06/22 12:52:57;;;;;;;8.30;7.50;;;21.70;99.90;;;;;;10492907;28;20303;-83
2021/06/22 12:58:00;;;;;;;10.70;8.07;;;21.50;99.90;;;;;;10510134;28;21011;-80
2021/06/22 13:03:08;;;;;;;8.30;7.70;;;21.10;99.90;;;;;;10513731;28;20200;-84
2021/06/22 13:08:16;;;;;;;8.83;8.13;;;20.80;99.90;;;;;;10506793;28;20587;-81
2021/06/22 13:13:25;;;;;;;8.27;7.53;;;20.70;99.90;;;;;;10511820;28;20213;-81
2021/06/22 13:18:27;;;;;;;9.73;8.50;;;20.90;99.90;;;;;;10485654;28;20237;-81
2021/06/22 13:23:42;;;;;;;8.80;8.00;;;20.90;99.90;;;;;;10499507;28;20196;-84
2021/06/22 13:28:57;;;;;;;7.00;6.50;;;21.00;99.90;;;;;;10498955;28;20399;-83
2021/06/22 13:34:05;;;;;;;5.73;5.23;;;21.10;99.90;;;;;;10501463;28;20247;-82
2021/06/22 13:39:10;;;;;;;5.93;5.53;;;21.20;99.90;;;;;;10494108;28;20609;-81
2021/06/22 13:44:15;;;;;;;4.00;3.73;;;21.40;99.90;;;;;;10481852;28;20197;-82
2021/06/22 13:49:17;;;;;;;5.17;4.80;;;21.60;99.90;;;;;;10506332;28;20232;-83
2021/06/22 13:54:19;;;;;;;5.00;4.60;;;21.70;99.90;;;;;;10502045;28;20679;-84
2021/06/22 13:59:22;;;;;;;3.60;3.00;;;21.90;99.90;;;;;;10490182;28;20769;-84
2021/06/22 14:04:24;;;;;;;1.83;1.73;;;22.10;99.90;;;;;;10500834;28;20189;-82
2021/06/22 14:09:26;;;;;;;2.03;1.67;;;22.00;99.90;;;;;;10511441;28;20231;-82
2021/06/22 14:14:30;;;;;;;2.43;2.33;;;21.70;99.90;;;;;;10519707;28;20580;-83
2021/06/22 14:19:32;;;;;;;2.00;1.80;;;21.60;99.90;;;;;;10530941;28;20718;-81
2021/06/22 14:24:34;;;;;;;2.40;2.20;;;21.50;99.90;;;;;;10532973;28;20306;-82
2021/06/22 14:29:38;;;;;;;2.73;2.60;;;21.40;99.90;;;;;;10531883;28;20598;-82
2021/06/22 14:34:40;;;;;;;2.93;2.73;;;21.40;99.90;;;;;;10544246;28;20672;-84
2021/06/22 14:39:43;;;;;;;4.00;3.70;;;21.30;99.90;;;;;;10531045;28;20216;-81
2021/06/22 14:44:46;;;;;;;3.87;3.57;;;21.40;99.90;;;;;;10532974;28;20204;-83
2021/06/22 14:49:49;;;;;;;3.50;3.10;;;21.40;99.90;;;;;;10532358;28;20311;-84
2021/06/22 14:54:51;;;;;;;3.90;3.60;;;21.40;99.90;;;;;;10552428;28;20276;-84
2021/06/22 14:59:55;;;;;;;4.10;3.30;;;21.50;99.90;;;;;;10517142;28;20220;-82
2021/06/22 15:04:57;;;;;;;4.17;3.53;;;21.60;99.90;;;;;;10516156;28;20204;-84
2021/06/22 15:09:59;;;;;;;3.90;3.60;;;21.70;99.90;;;;;;10530180;28;20239;-82
2021/06/22 15:15:02;;;;;;;3.80;3.60;;;21.80;99.90;;;;;;10515942;28;20586;-84
2021/06/22 15:20:07;;;;;;;4.43;4.03;;;22.00;99.90;;;;;;10548356;28;20215;-84
2021/06/22 15:25:12;;;;;;;3.43;3.13;;;22.20;99.90;;;;;;10534442;28;20196;-84
2021/06/22 15:30:18;;;;;;;3.97;3.67;;;22.40;99.90;;;;;;10518062;28;20219;-83
2021/06/22 15:35:22;;;;;;;4.83;3.83;;;22.60;99.90;;;;;;10545058;28;20223;-81
2021/06/22 15:40:25;;;;;;;3.80;3.60;;;22.70;99.90;;;;;;10522908;28;20265;-80
2021/06/22 15:45:28;;;;;;;3.53;3.33;;;22.80;99.90;;;;;;10503986;28;20206;-82
2021/06/22 15:50:31;;;;;;;3.20;3.00;;;22.90;99.90;;;;;;10541044;28;20683;-81
2021/06/22 15:55:33;;;;;;;2.90;2.70;;;23.10;99.90;;;;;;10506905;28;20281;-81
2021/06/22 16:00:37;;;;;;;3.30;3.10;;;23.30;99.90;;;;;;10526395;28;20216;-82
2021/06/22 16:05:41;;;;;;;3.00;2.90;;;23.40;99.90;;;;;;10520175;28;20196;-83
2021/06/22 16:10:43;;;;;;;3.57;3.37;;;23.50;99.90;;;;;;10517611;28;20232;-82
2021/06/22 16:15:47;;;;;;;2.97;2.77;;;23.70;99.90;;;;;;10538347;28;20247;-84
2021/06/22 16:20:49;;;;;;;2.87;2.77;;;23.80;99.90;;;;;;10520910;28;20730;-82
2021/06/22 16:25:52;;;;;;;3.40;3.20;;;23.80;99.90;;;;;;10525281;28;20191;-83
2021/06/22 16:30:55;;;;;;;2.93;2.73;;;23.70;99.90;;;;;;10531782;28;20758;-83
2021/06/22 16:35:57;;;;;;;4.13;3.73;;;23.60;99.90;;;;;;10533477;28;20219;-82
2021/06/22 16:40:59;;;;;;;3.67;3.47;;;23.30;99.90;;;;;;10524782;28;20232;-82
2021/06/22 16:46:06;;;;;;;4.50;4.20;;;23.20;99.90;;;;;;10513294;28;20234;-83
2021/06/22 16:51:08;;;;;;;3.97;3.60;;;23.00;99.90;;;;;;10536611;28;20642;-83
2021/06/22 16:56:10;;;;;;;5.63;3.50;;;22.90;99.90;;;;;;10534428;28;20591;-83
2021/06/22 17:01:14;;;;;;;3.17;2.97;;;22.70;99.90;;;;;;10519615;28;20258;-82
2021/06/22 17:06:16;;;;;;;2.70;2.50;;;22.60;99.90;;;;;;10538062;28;20200;-82
2021/06/22 17:11:18;;;;;;;2.87;2.67;;;22.60;99.90;;;;;;10538175;22;20249;-81
2021/06/22 17:16:21;;;;;;;2.90;2.70;;;22.60;99.90;;;;;;10544448;28;20219;-81
2021/06/22 17:21:24;;;;;;;3.20;2.90;;;22.60;99.90;;;;;;10538870;28;20247;-80
2021/06/22 17:26:26;;;;;;;3.27;2.97;;;22.50;99.90;;;;;;10543857;28;20199;-80
2021/06/22 17:31:29;;;;;;;4.67;2.93;;;22.50;99.90;;;;;;10537734;28;20386;-80
2021/06/22 17:36:32;;;;;;;2.73;2.53;;;22.50;99.90;;;;;;10543808;28;20303;-80
2021/06/22 17:41:34;;;;;;;3.60;3.30;;;22.50;99.90;;;;;;10536314;28;20298;-80
2021/06/22 17:46:37;;;;;;;5.13;2.87;;;22.50;99.90;;;;;;10520951;28;20189;-80
2021/06/22 17:51:39;;;;;;;4.20;3.50;;;22.50;99.90;;;;;;10541790;28;20219;-80
2021/06/22 17:56:41;;;;;;;4.80;3.47;;;22.60;99.90;;;;;;10544214;28;20243;-80
2021/06/22 18:01:45;;;;;;;3.80;3.60;;;22.60;99.90;;;;;;10537380;28;20265;-80
2021/06/22 18:06:47;;;;;;;3.93;3.63;;;22.60;99.90;;;;;;10526470;28;20227;-80
2021/06/22 18:11:49;;;;;;;4.00;3.60;;;22.70;99.90;;;;;;10533813;28;20229;-80
2021/06/22 18:16:53;;;;;;;3.90;3.50;;;22.70;99.90;;;;;;10541703;28;20219;-79
2021/06/22 18:21:55;;;;;;;4.47;3.50;;;22.60;99.90;;;;;;10540274;28;20306;-79
2021/06/22 18:26:57;;;;;;;3.20;2.90;;;22.60;99.90;;;;;;10539216;28;20290;-80
2021/06/22 18:32:00;;;;;;;4.30;4.00;;;22.70;99.90;;;;;;10536264;28;20247;-80
2021/06/22 18:37:05;;;;;;;3.70;3.40;;;22.60;99.90;;;;;;10531877;28;20286;-80
2021/06/22 18:42:08;;;;;;;3.00;2.80;;;22.60;99.90;;;;;;10534151;28;20239;-80
2021/06/22 18:47:12;;;;;;;3.43;3.23;;;22.60;99.90;;;;;;10539489;28;20632;-80
2021/06/22 18:52:14;;;;;;;3.00;2.70;;;22.50;99.90;;;;;;10538626;28;20223;-80
2021/06/22 18:57:17;;;;;;;6.10;3.23;;;22.50;99.90;;;;;;10517846;28;20223;-79
2021/06/22 19:02:20;;;;;;;3.03;2.83;;;22.50;99.90;;;;;;10537140;28;20219;-79
2021/06/22 19:07:23;;;;;;;3.37;3.17;;;22.50;99.90;;;;;;10535539;28;20204;-79
2021/06/22 19:12:25;;;;;;;3.10;2.90;;;22.40;99.90;;;;;;10525441;28;20227;-79
2021/06/22 19:17:33;;;;;;;2.70;2.50;;;22.40;99.90;;;;;;10538270;28;20290;-80
2021/06/22 19:22:36;;;;;;;3.10;2.87;;;22.30;99.90;;;;;;10530261;28;20290;-80
2021/06/22 19:27:38;;;;;;;3.20;3.00;;;22.30;99.90;;;;;;10531773;28;20224;-79
2021/06/22 19:32:42;;;;;;;2.93;2.73;;;22.20;99.90;;;;;;10535255;28;20300;-80
2021/06/22 19:37:46;;;;;;;3.47;3.27;;;22.20;99.90;;;;;;10536880;28;20196;-80
2021/06/22 19:42:48;;;;;;;3.90;3.70;;;22.20;99.90;;;;;;10534338;28;20231;-80
2021/06/22 19:47:52;;;;;;;3.87;3.60;;;22.20;99.90;;;;;;10535296;28;20303;-80
2021/06/22 19:52:54;;;;;;;4.37;3.63;;;22.10;99.90;;;;;;10532452;28;20650;-80
2021/06/22 19:57:57;;;;;;;3.93;3.60;;;22.10;99.90;;;;;;10533365;28;20196;-80
2021/06/22 20:03:00;;;;;;;5.33;3.50;;;22.00;99.90;;;;;;10533170;28;20207;-79
2021/06/22 20:08:03;;;;;;;12.30;11.07;;;22.00;99.90;;;;;;10522265;28;20675;-79
2021/06/22 20:13:05;;;;;;;23.07;15.27;;;21.90;99.90;;;;;;10528591;28;20211;-79
2021/06/22 20:18:09;;;;;;;3.20;3.10;;;21.70;99.90;;;;;;10536076;28;20283;-80
2021/06/22 20:23:11;;;;;;;3.63;3.23;;;21.60;99.90;;;;;;10527944;28;20192;-80
2021/06/22 20:28:13;;;;;;;3.50;3.30;;;21.50;99.90;;;;;;10535722;28;20240;-80
2021/06/22 20:33:17;;;;;;;3.83;3.60;;;21.50;99.90;;;;;;10523888;28;20209;-80
2021/06/22 20:38:19;;;;;;;3.57;3.37;;;21.40;99.90;;;;;;10517390;28;20323;-80
2021/06/22 20:43:23;;;;;;;3.90;3.60;;;21.40;99.90;;;;;;10525071;28;20605;-79
2021/06/22 20:48:27;;;;;;;3.80;3.60;;;21.30;99.90;;;;;;10529746;28;20808;-79
2021/06/22 20:53:29;;;;;;;3.10;3.00;;;21.20;99.90;;;;;;10536030;28;20273;-79
2021/06/22 20:58:31;;;;;;;3.40;3.20;;;21.20;99.90;;;;;;10545451;28;20220;-79
2021/06/22 21:03:34;;;;;;;3.90;3.60;;;21.10;99.90;;;;;;10517025;28;20294;-80
2021/06/22 21:08:36;;;;;;;3.63;3.33;;;21.10;99.90;;;;;;10534648;28;20223;-79
2021/06/22 21:13:39;;;;;;;4.17;3.83;;;21.10;99.90;;;;;;10532553;28;20625;-80
2021/06/22 21:18:42;;;;;;;3.53;3.33;;;21.10;99.90;;;;;;10540832;28;20250;-79
2021/06/22 21:23:44;;;;;;;2.90;2.80;;;21.00;99.90;;;;;;10540412;28;20243;-79
2021/06/22 21:28:46;;;;;;;4.30;3.60;;;20.90;99.90;;;;;;10520567;28;20215;-80
2021/06/22 21:33:50;;;;;;;4.00;3.77;;;20.90;99.90;;;;;;10529555;28;20311;-79
2021/06/22 21:38:52;;;;;;;3.60;3.40;;;20.90;99.90;;;;;;10538193;28;20226;-79
2021/06/22 21:43:54;;;;;;;4.20;3.80;;;20.80;99.90;;;;;;10524566;28;20553;-79
2021/06/22 21:48:57;;;;;;;5.00;3.30;;;20.80;99.90;;;;;;10539955;28;20222;-79
2021/06/22 21:54:00;;;;;;;4.40;4.10;;;20.80;99.90;;;;;;10537309;28;20235;-80
2021/06/22 21:59:02;;;;;;;5.43;3.90;;;20.80;99.90;;;;;;10536840;28;20598;-79
2021/06/22 22:04:05;;;;;;;3.90;3.60;;;20.80;99.90;;;;;;10539325;28;20664;-79
2021/06/22 22:09:07;;;;;;;3.83;3.63;;;20.80;99.90;;;;;;10539758;28;20354;-79
2021/06/22 22:14:09;;;;;;;3.27;3.07;;;20.80;99.90;;;;;;10536792;28;20243;-80
2021/06/22 22:19:13;;;;;;;4.20;3.67;;;20.70;99.90;;;;;;10532090;28;20529;-79
2021/06/22 22:24:15;;;;;;;4.20;3.80;;;20.70;99.90;;;;;;10537814;28;20279;-79
2021/06/22 22:29:17;;;;;;;3.37;3.17;;;20.70;99.90;;;;;;10521164;28;20234;-79
2021/06/22 22:34:21;;;;;;;4.23;3.77;;;20.70;99.90;;;;;;10519867;28;20218;-79
2021/06/22 22:39:23;;;;;;;4.30;4.00;;;20.70;99.90;;;;;;10538131;28;20594;-80
2021/06/22 22:44:25;;;;;;;3.83;3.17;;;20.80;99.90;;;;;;10526686;28;20196;-80
2021/06/22 22:49:28;;;;;;;3.63;3.33;;;20.90;99.90;;;;;;10536656;28;20220;-80
2021/06/22 22:54:31;;;;;;;3.80;3.60;;;20.80;99.90;;;;;;10539254;28;20247;-79
2021/06/22 22:59:33;;;;;;;4.00;3.77;;;20.80;99.90;;;;;;10519928;28;20303;-80
2021/06/22 23:04:36;;;;;;;3.67;3.37;;;20.80;99.90;;;;;;10527212;28;20262;-79
2021/06/22 23:09:38;;;;;;;3.67;3.47;;;20.80;99.90;;;;;;10540523;22;20235;-80
2021/06/22 23:14:40;;;;;;;3.73;3.50;;;20.80;99.90;;;;;;10492295;28;20303;-80
2021/06/22 23:19:44;;;;;;;3.40;3.10;;;20.90;99.90;;;;;;10487571;28;20239;-81
2021/06/22 23:24:46;;;;;;;3.73;3.43;;;20.90;99.90;;;;;;10492296;28;20216;-81
2021/06/22 23:29:48;;;;;;;3.90;3.47;;;20.90;99.90;;;;;;10503216;28;20250;-80
2021/06/22 23:34:52;;;;;;;3.50;3.30;;;20.90;99.90;;;;;;10495106;28;20230;-80
2021/06/22 23:39:54;;;;;;;3.40;3.10;;;20.90;99.90;;;;;;10475028;28;20267;-81
2021/06/22 23:44:56;;;;;;;3.23;3.10;;;20.80;99.90;;;;;;10506104;28;20644;-81
2021/06/22 23:49:59;;;;;;;3.03;2.93;;;20.80;99.90;;;;;;10506361;28;20243;-81
2021/06/22 23:55:01;;;;;;;3.50;3.30;;;20.80;99.90;;;;;;10494458;28;20760;-81
